Terminal Aerodrome Forecast
Issued by NWS King Salmon, AK

Home | Current Version | Previous Version | Text Only | Print | Product List | Glossary On
Versions: 1 2 3 4 5 6 7 8 9 10 11 12 13 14 15 16 17 18 19 20 21
000
FTAK31 PANC 231906 AAA
TAFAKN
TAF AMD
PAKN 231906Z 2319/2418 17012KT P6SM SCT015 BKN040
     FM232200 16008KT P6SM -SHRA BKN040
     FM240500 15008KT P6SM -SHRA BKN040
     FM241300 10005KT 6SM -RA BR SCT010 OVC025=

USA.gov is the U.S. government's official web portal to all federal, state and local government web resources and services.